Time;durP1;ratioP1;P1;durP2;ratioP2;P2;SDS_P1;SDS_P2;PMS_P1;PMS_P2;Temp;Humidity;BMP_temperature;BMP_pressure;BME280_temperature;BME280_humidity;BME280_pressure;Samples;Min_cycle;Max_cycle;Signal;HPM_P1;HPM_P2
2022/10/16 00:01:58;;;;;;;3.12;2.92;;;;;;;;;;1920536;73;26161;-89
2022/10/16 00:04:25;;;;;;;3.40;3.20;;;;;;;;;;1916151;74;26305;-89
2022/10/16 00:06:53;;;;;;;3.65;3.35;;;;;;;;;;1903857;73;26256;-88
2022/10/16 00:09:20;;;;;;;4.33;3.22;;;;;;;;;;1903837;73;26188;-89
2022/10/16 00:11:47;;;;;;;3.20;2.98;;;;;;;;;;1925800;73;26840;-88
2022/10/16 00:14:15;;;;;;;3.55;3.10;;;;;;;;;;1923325;73;26674;-89
2022/10/16 00:16:42;;;;;;;3.15;2.92;;;;;;;;;;1914406;74;26363;-91
2022/10/16 00:19:15;;;;;;;3.17;2.98;;;;;;;;;;1913925;74;26205;-87
2022/10/16 00:21:40;;;;;;;3.25;3.08;;;;;;;;;;1919696;73;26330;-90
2022/10/16 00:24:08;;;;;;;3.30;2.80;;;;;;;;;;1910122;74;26249;-87
2022/10/16 00:26:37;;;;;;;2.90;2.60;;;;;;;;;;1913461;74;26482;-89
2022/10/16 00:29:05;;;;;;;2.80;2.70;;;;;;;;;;1923297;73;26273;-90
2022/10/16 00:31:32;;;;;;;3.20;2.90;;;;;;;;;;1916604;73;26234;-89
2022/10/16 00:34:00;;;;;;;2.60;2.50;;;;;;;;;;1919101;73;26220;-89
2022/10/16 00:36:27;;;;;;;3.55;2.90;;;;;;;;;;1911932;74;26366;-87
2022/10/16 00:38:55;;;;;;;3.10;2.90;;;;;;;;;;1925138;74;26204;-88
2022/10/16 00:41:24;;;;;;;2.55;2.45;;;;;;;;;;1917746;74;26180;-90
2022/10/16 00:43:53;;;;;;;2.62;2.40;;;;;;;;;;1913050;73;26217;-88
2022/10/16 00:46:24;;;;;;;3.00;2.70;;;;;;;;;;1925381;73;26171;-90
2022/10/16 00:48:56;;;;;;;2.40;2.30;;;;;;;;;;1912638;74;26737;-90
2022/10/16 00:51:24;;;;;;;2.75;2.60;;;;;;;;;;1919656;74;26703;-88
2022/10/16 00:53:52;;;;;;;2.65;2.55;;;;;;;;;;1911563;73;26276;-88
2022/10/16 00:56:19;;;;;;;2.50;2.40;;;;;;;;;;1911036;73;26250;-87
2022/10/16 00:58:47;;;;;;;2.62;2.50;;;;;;;;;;1914609;74;26720;-88
2022/10/16 01:01:14;;;;;;;2.42;2.33;;;;;;;;;;1915634;73;26345;-88
2022/10/16 01:03:42;;;;;;;2.37;2.17;;;;;;;;;;1915001;74;26177;-90
2022/10/16 01:06:14;;;;;;;2.62;2.52;;;;;;;;;;1918674;73;26221;-88
2022/10/16 01:08:49;;;;;;;2.30;2.20;;;;;;;;;;1907368;74;26681;-88
2022/10/16 01:11:24;;;;;;;2.37;2.27;;;;;;;;;;1913163;74;26720;-89
2022/10/16 01:13:53;;;;;;;2.40;2.30;;;;;;;;;;1916843;74;26335;-88
2022/10/16 01:16:27;;;;;;;2.30;2.20;;;;;;;;;;1916950;73;26231;-90
2022/10/16 01:18:56;;;;;;;2.42;2.22;;;;;;;;;;1916940;74;26353;-88
2022/10/16 01:21:25;;;;;;;2.40;2.30;;;;;;;;;;1920844;74;26201;-89
2022/10/16 01:24:03;;;;;;;2.10;2.00;;;;;;;;;;1910088;73;26296;-93
2022/10/16 01:26:38;;;;;;;2.42;2.33;;;;;;;;;;1902057;73;26184;-90
2022/10/16 01:29:19;;;;;;;2.27;2.17;;;;;;;;;;1915069;73;26266;-88
2022/10/16 01:31:48;;;;;;;2.33;2.22;;;;;;;;;;1898306;74;26773;-89
2022/10/16 01:34:17;;;;;;;2.20;2.10;;;;;;;;;;1903136;73;26274;-89
2022/10/16 01:36:52;;;;;;;2.08;1.98;;;;;;;;;;1925558;73;26206;-88
2022/10/16 01:39:20;;;;;;;2.20;2.10;;;;;;;;;;1918928;73;26183;-88
2022/10/16 01:41:49;;;;;;;2.17;2.08;;;;;;;;;;1910749;73;26219;-89
2022/10/16 01:44:21;;;;;;;1.90;1.90;;;;;;;;;;1899534;74;26215;-88
2022/10/16 01:46:50;;;;;;;2.10;2.00;;;;;;;;;;1912289;73;26235;-89
2022/10/16 01:49:18;;;;;;;2.08;1.98;;;;;;;;;;1906287;74;26743;-90
2022/10/16 01:51:46;;;;;;;2.00;1.90;;;;;;;;;;1904557;73;26187;-91
2022/10/16 01:54:14;;;;;;;2.17;2.08;;;;;;;;;;1918233;73;26301;-88
2022/10/16 01:56:43;;;;;;;2.00;1.90;;;;;;;;;;1897544;74;26226;-88
2022/10/16 01:59:11;;;;;;;2.10;2.00;;;;;;;;;;1918094;74;26313;-88
2022/10/16 02:01:41;;;;;;;2.35;2.17;;;;;;;;;;1927109;73;26756;-88
2022/10/16 02:04:12;;;;;;;1.80;1.80;;;;;;;;;;1907161;73;26306;-88
2022/10/16 02:06:39;;;;;;;1.82;1.72;;;;;;;;;;1930431;73;26161;-88
2022/10/16 02:09:07;;;;;;;1.95;1.87;;;;;;;;;;1896055;74;26301;-88
2022/10/16 02:11:34;;;;;;;1.90;1.80;;;;;;;;;;1916121;73;26656;-89
2022/10/16 02:14:03;;;;;;;1.70;1.70;;;;;;;;;;1898465;74;26273;-89
2022/10/16 02:16:35;;;;;;;1.90;1.80;;;;;;;;;;1920183;74;26673;-88
2022/10/16 02:19:02;;;;;;;1.80;1.80;;;;;;;;;;1914282;74;26301;-89
2022/10/16 02:21:31;;;;;;;1.72;1.72;;;;;;;;;;1918283;73;26230;-89
2022/10/16 02:24:03;;;;;;;1.75;1.65;;;;;;;;;;1876837;75;26197;-90
2022/10/16 02:26:37;;;;;;;1.87;1.85;;;;;;;;;;1900726;75;26333;-90
2022/10/16 02:29:06;;;;;;;2.00;1.90;;;;;;;;;;1898220;75;26183;-88
2022/10/16 02:31:35;;;;;;;1.60;1.60;;;;;;;;;;1889806;74;26701;-91
2022/10/16 02:34:04;;;;;;;1.80;1.80;;;;;;;;;;1885790;73;26320;-88
2022/10/16 02:36:32;;;;;;;1.80;1.80;;;;;;;;;;1830183;75;26272;-89
2022/10/16 02:39:01;;;;;;;1.80;1.70;;;;;;;;;;1862210;77;26625;-88
2022/10/16 02:41:28;;;;;;;1.77;1.77;;;;;;;;;;1963504;72;26274;-89
2022/10/16 02:43:55;;;;;;;1.67;1.60;;;;;;;;;;1967668;72;26257;-89
2022/10/16 02:46:22;;;;;;;1.65;1.60;;;;;;;;;;1948354;72;26331;-89
2022/10/16 02:48:50;;;;;;;1.90;1.90;;;;;;;;;;1967371;72;26252;-89
2022/10/16 02:51:17;;;;;;;1.70;1.70;;;;;;;;;;1950339;72;26359;-88
2022/10/16 02:53:44;;;;;;;1.85;1.60;;;;;;;;;;1958097;72;26612;-88
2022/10/16 02:56:12;;;;;;;1.62;1.62;;;;;;;;;;1946708;71;26209;-89
2022/10/16 02:58:39;;;;;;;1.50;1.50;;;;;;;;;;1943227;72;26737;-89
2022/10/16 03:01:06;;;;;;;1.50;1.50;;;;;;;;;;1953325;72;26222;-89
2022/10/16 03:03:33;;;;;;;1.57;1.57;;;;;;;;;;1968353;72;26295;-91
2022/10/16 03:06:01;;;;;;;1.82;1.72;;;;;;;;;;1956598;72;26202;-89
2022/10/16 03:08:28;;;;;;;1.87;1.77;;;;;;;;;;1944350;72;26263;-89
2022/10/16 03:10:55;;;;;;;1.50;1.50;;;;;;;;;;1944219;73;26735;-88
2022/10/16 03:13:23;;;;;;;1.70;1.70;;;;;;;;;;1949530;72;26198;-89
2022/10/16 03:15:50;;;;;;;1.60;1.60;;;;;;;;;;1954096;72;26226;-89
2022/10/16 03:18:17;;;;;;;1.50;1.50;;;;;;;;;;1966850;72;26228;-89
2022/10/16 03:20:45;;;;;;;1.52;1.52;;;;;;;;;;1957375;72;26306;-89
2022/10/16 03:23:12;;;;;;;1.50;1.50;;;;;;;;;;1969165;72;26218;-89
2022/10/16 03:25:40;;;;;;;1.70;1.70;;;;;;;;;;1957526;72;26175;-89
2022/10/16 03:28:07;;;;;;;1.42;1.42;;;;;;;;;;1942322;72;26341;-89
2022/10/16 03:30:35;;;;;;;1.60;1.50;;;;;;;;;;1931294;71;26222;-89
2022/10/16 03:33:02;;;;;;;1.50;1.50;;;;;;;;;;1956683;72;26297;-89
2022/10/16 03:35:29;;;;;;;1.75;1.70;;;;;;;;;;1959341;73;26257;-89
2022/10/16 03:37:56;;;;;;;1.67;1.40;;;;;;;;;;1937597;72;26203;-89
2022/10/16 03:40:24;;;;;;;1.82;1.82;;;;;;;;;;1934493;71;26229;-89
2022/10/16 03:42:51;;;;;;;1.60;1.60;;;;;;;;;;1937252;72;26238;-89
2022/10/16 03:45:18;;;;;;;1.50;1.50;;;;;;;;;;1954238;72;26695;-90
2022/10/16 03:47:47;;;;;;;1.50;1.50;;;;;;;;;;1942647;72;26271;-89
2022/10/16 03:50:14;;;;;;;1.52;1.52;;;;;;;;;;1948996;72;26239;-89
2022/10/16 03:52:41;;;;;;;1.40;1.40;;;;;;;;;;1961632;72;26618;-89
2022/10/16 03:55:09;;;;;;;1.50;1.50;;;;;;;;;;1969796;71;26698;-89
2022/10/16 03:57:36;;;;;;;1.50;1.50;;;;;;;;;;1947179;73;26323;-89
2022/10/16 04:00:03;;;;;;;1.50;1.50;;;;;;;;;;1970658;72;26692;-88
2022/10/16 04:02:31;;;;;;;1.30;1.30;;;;;;;;;;1978209;72;26239;-90
2022/10/16 04:04:58;;;;;;;1.35;1.35;;;;;;;;;;1976790;72;26223;-89
2022/10/16 04:07:25;;;;;;;1.40;1.40;;;;;;;;;;1958922;72;26285;-90
2022/10/16 04:09:53;;;;;;;1.50;1.50;;;;;;;;;;1946275;72;26267;-89
2022/10/16 04:12:20;;;;;;;1.30;1.30;;;;;;;;;;1943174;72;26368;-88
2022/10/16 04:14:47;;;;;;;1.47;1.47;;;;;;;;;;1944809;72;26381;-89
2022/10/16 04:17:14;;;;;;;1.30;1.30;;;;;;;;;;1941668;72;26324;-88
2022/10/16 04:19:42;;;;;;;1.47;1.47;;;;;;;;;;1947803;72;26348;-89
2022/10/16 04:22:09;;;;;;;1.20;1.20;;;;;;;;;;1945250;72;26992;-94
2022/10/16 04:24:36;;;;;;;1.40;1.40;;;;;;;;;;1964418;72;26240;-89
2022/10/16 04:27:04;;;;;;;1.40;1.40;;;;;;;;;;1968961;72;26162;-93
2022/10/16 04:29:31;;;;;;;1.47;1.47;;;;;;;;;;1921207;72;26275;-92
2022/10/16 04:31:58;;;;;;;1.20;1.20;;;;;;;;;;1931206;72;26320;-88
2022/10/16 04:34:25;;;;;;;1.27;1.27;;;;;;;;;;1969166;72;26199;-89
2022/10/16 04:36:53;;;;;;;1.10;1.10;;;;;;;;;;1975746;72;26207;-89
2022/10/16 04:39:20;;;;;;;1.30;1.30;;;;;;;;;;1953836;72;26288;-89
2022/10/16 04:41:47;;;;;;;1.20;1.20;;;;;;;;;;1951383;71;26317;-89
2022/10/16 04:44:14;;;;;;;1.20;1.20;;;;;;;;;;1960198;72;26224;-89
2022/10/16 04:46:42;;;;;;;1.20;1.20;;;;;;;;;;1976482;72;26246;-89
2022/10/16 04:49:09;;;;;;;1.15;1.15;;;;;;;;;;1948558;72;26732;-89
2022/10/16 04:51:36;;;;;;;1.25;1.25;;;;;;;;;;1941744;72;26258;-89
2022/10/16 04:54:04;;;;;;;1.20;1.20;;;;;;;;;;1974876;72;26176;-88
2022/10/16 04:56:31;;;;;;;1.20;1.20;;;;;;;;;;1987433;72;26821;-90
2022/10/16 04:58:58;;;;;;;1.27;1.27;;;;;;;;;;1944968;72;26766;-88
2022/10/16 05:01:25;;;;;;;1.27;1.27;;;;;;;;;;1949670;72;26302;-90
2022/10/16 05:03:53;;;;;;;1.00;1.00;;;;;;;;;;1975686;72;26242;-88
2022/10/16 05:06:20;;;;;;;1.30;1.30;;;;;;;;;;1969082;72;26158;-88
2022/10/16 05:08:47;;;;;;;1.20;1.20;;;;;;;;;;1959796;72;26256;-88
2022/10/16 05:11:14;;;;;;;1.20;1.20;;;;;;;;;;1967753;72;26288;-88
2022/10/16 05:13:42;;;;;;;0.98;0.98;;;;;;;;;;1942901;72;26321;-89
2022/10/16 05:16:09;;;;;;;1.10;1.10;;;;;;;;;;1941313;72;26235;-88
2022/10/16 05:18:36;;;;;;;1.07;1.07;;;;;;;;;;1934040;72;26383;-89
2022/10/16 05:21:03;;;;;;;1.00;1.00;;;;;;;;;;1948846;72;26407;-89
2022/10/16 05:23:31;;;;;;;1.12;1.12;;;;;;;;;;1941391;72;26283;-88
2022/10/16 05:25:59;;;;;;;1.10;1.10;;;;;;;;;;1966244;72;26219;-90
2022/10/16 05:28:27;;;;;;;1.10;1.10;;;;;;;;;;1964982;72;26250;-88
2022/10/16 05:30:54;;;;;;;1.10;1.10;;;;;;;;;;1971302;72;26687;-88
2022/10/16 05:33:22;;;;;;;1.00;1.00;;;;;;;;;;1974895;72;26176;-89
2022/10/16 05:35:49;;;;;;;1.10;1.10;;;;;;;;;;1975173;72;26283;-87
2022/10/16 05:38:17;;;;;;;0.95;0.95;;;;;;;;;;1963174;72;26205;-90
2022/10/16 05:40:46;;;;;;;1.00;1.00;;;;;;;;;;1972466;72;26207;-88
2022/10/16 05:43:13;;;;;;;1.00;1.00;;;;;;;;;;1951783;72;26212;-88
2022/10/16 05:45:40;;;;;;;1.07;1.07;;;;;;;;;;1953873;72;26324;-88
2022/10/16 05:48:07;;;;;;;1.10;1.10;;;;;;;;;;1963918;72;26175;-88
2022/10/16 05:50:35;;;;;;;1.00;1.00;;;;;;;;;;1964023;72;26203;-88
2022/10/16 05:53:02;;;;;;;1.00;1.00;;;;;;;;;;1973786;72;26176;-88
2022/10/16 05:55:29;;;;;;;0.80;0.80;;;;;;;;;;1973184;72;26645;-89
2022/10/16 05:57:56;;;;;;;1.25;1.20;;;;;;;;;;1970072;72;26695;-88
2022/10/16 06:00:24;;;;;;;0.95;0.95;;;;;;;;;;1958785;72;26951;-88
2022/10/16 06:02:51;;;;;;;1.00;1.00;;;;;;;;;;1965768;72;26280;-88
2022/10/16 06:05:18;;;;;;;0.90;0.90;;;;;;;;;;1948577;73;26256;-88
2022/10/16 06:07:45;;;;;;;0.98;0.98;;;;;;;;;;1942407;71;26314;-89
2022/10/16 06:10:13;;;;;;;2.25;1.05;;;;;;;;;;1946520;71;26327;-90
2022/10/16 06:12:40;;;;;;;1.02;1.02;;;;;;;;;;1940317;72;26311;-89
2022/10/16 06:15:07;;;;;;;0.90;0.90;;;;;;;;;;1952361;72;26250;-89
2022/10/16 06:17:35;;;;;;;0.90;0.90;;;;;;;;;;1934354;72;26924;-89
2022/10/16 06:20:02;;;;;;;0.82;0.82;;;;;;;;;;1958486;72;26674;-89
2022/10/16 06:22:29;;;;;;;0.88;0.88;;;;;;;;;;1948482;72;26753;-90
2022/10/16 06:24:56;;;;;;;1.00;1.00;;;;;;;;;;1953126;72;26622;-90
2022/10/16 06:27:24;;;;;;;0.90;0.90;;;;;;;;;;1922795;72;26619;-89
2022/10/16 06:29:51;;;;;;;0.80;0.80;;;;;;;;;;1934943;71;26336;-89
2022/10/16 06:32:18;;;;;;;0.90;0.90;;;;;;;;;;1930952;72;26238;-89
2022/10/16 06:34:46;;;;;;;1.00;1.00;;;;;;;;;;1953438;72;26215;-89
2022/10/16 06:37:13;;;;;;;0.70;0.70;;;;;;;;;;1964936;73;26250;-90
2022/10/16 06:39:40;;;;;;;0.80;0.80;;;;;;;;;;1943222;72;26323;-89
2022/10/16 06:42:07;;;;;;;1.05;0.80;;;;;;;;;;1934462;73;26282;-89
2022/10/16 06:44:35;;;;;;;0.80;0.80;;;;;;;;;;1951808;72;26720;-89
2022/10/16 06:47:03;;;;;;;0.90;0.90;;;;;;;;;;1935451;73;26652;-89
2022/10/16 06:49:30;;;;;;;0.88;0.88;;;;;;;;;;1937495;72;26353;-93
2022/10/16 06:51:57;;;;;;;0.88;0.88;;;;;;;;;;1950443;72;26219;-90
2022/10/16 06:54:25;;;;;;;0.98;0.98;;;;;;;;;;1938592;72;26867;-89
2022/10/16 06:56:54;;;;;;;0.88;0.88;;;;;;;;;;1954516;72;26624;-92
2022/10/16 06:59:21;;;;;;;0.95;0.95;;;;;;;;;;1958995;72;26709;-91
2022/10/16 07:01:49;;;;;;;1.40;1.15;;;;;;;;;;1938990;72;26223;-88
2022/10/16 07:04:16;;;;;;;3.70;1.30;;;;;;;;;;1947905;72;26606;-90
2022/10/16 07:06:43;;;;;;;2.35;1.45;;;;;;;;;;1949343;72;26167;-89
2022/10/16 07:09:14;;;;;;;3.17;1.35;;;;;;;;;;1956125;72;26216;-95
2022/10/16 07:11:41;;;;;;;3.42;1.17;;;;;;;;;;1930226;73;26339;-88
2022/10/16 07:14:16;;;;;;;3.02;1.30;;;;;;;;;;1946270;72;26760;-87
2022/10/16 07:16:43;;;;;;;1.72;1.00;;;;;;;;;;1959009;73;26666;-88
2022/10/16 07:19:17;;;;;;;0.90;0.90;;;;;;;;;;1949860;72;26167;-90
2022/10/16 07:21:39;;;;;;;5.05;1.10;;;;;;;;;;1949116;71;26389;-88
2022/10/16 07:24:08;;;;;;;1.82;1.00;;;;;;;;;;1935832;73;26286;-88
2022/10/16 07:26:36;;;;;;;2.17;0.90;;;;;;;;;;1943184;73;26302;-88
2022/10/16 07:29:04;;;;;;;2.70;1.15;;;;;;;;;;1934897;73;26215;-88
2022/10/16 07:31:31;;;;;;;0.90;0.90;;;;;;;;;;1935118;74;26243;-89
2022/10/16 07:33:59;;;;;;;3.20;1.00;;;;;;;;;;1935204;74;26529;-89
2022/10/16 07:36:27;;;;;;;1.00;1.00;;;;;;;;;;1965304;73;26209;-90
2022/10/16 07:42:08;;;;;;;0.90;0.90;;;;;;;;;;1957296;73;26223;-91
2022/10/16 07:47:50;;;;;;;1.80;1.10;;;;;;;;;;1934724;74;26305;-91
2022/10/16 07:56:01;;;;;;;1.52;1.17;;;;;;;;;;1947654;73;26729;-90
2022/10/16 07:58:29;;;;;;;1.30;1.20;;;;;;;;;;1948804;73;26228;-88
2022/10/16 08:00:56;;;;;;;1.35;1.25;;;;;;;;;;1957922;72;26370;-91
2022/10/16 08:03:24;;;;;;;1.35;1.10;;;;;;;;;;1945152;72;26235;-91
2022/10/16 08:05:52;;;;;;;1.10;1.10;;;;;;;;;;1954911;73;26224;-93
2022/10/16 08:08:19;;;;;;;3.42;1.12;;;;;;;;;;1969280;73;26252;-90
2022/10/16 08:10:48;;;;;;;1.60;1.10;;;;;;;;;;1962731;72;26744;-91
2022/10/16 08:13:16;;;;;;;2.98;1.17;;;;;;;;;;1943722;72;26234;-89
2022/10/16 08:15:44;;;;;;;1.40;1.10;;;;;;;;;;1972599;71;26235;-90
2022/10/16 08:18:12;;;;;;;1.47;1.37;;;;;;;;;;1955184;71;26199;-89
2022/10/16 08:20:39;;;;;;;2.20;2.10;;;;;;;;;;1958990;73;26265;-91
2022/10/16 08:23:07;;;;;;;6.53;5.83;;;;;;;;;;1964353;72;26284;-92
2022/10/16 08:25:37;;;;;;;10.18;9.13;;;;;;;;;;1949963;72;26717;-93
2022/10/16 08:28:09;;;;;;;16.15;13.40;;;;;;;;;;1956558;73;26159;-90
2022/10/16 08:30:34;;;;;;;22.65;19.50;;;;;;;;;;1968276;73;26213;-89
2022/10/16 08:33:02;;;;;;;27.77;21.55;;;;;;;;;;1970075;73;26726;-90
2022/10/16 08:38:54;;;;;;;37.17;30.75;;;;;;;;;;1965536;73;26251;-91
2022/10/16 08:41:35;;;;;;;44.20;36.15;;;;;;;;;;1969544;73;26290;-91
2022/10/16 08:44:15;;;;;;;51.20;40.85;;;;;;;;;;1968009;71;26680;-90
2022/10/16 08:46:50;;;;;;;58.98;46.18;;;;;;;;;;1956634;73;26222;-90
2022/10/16 08:49:18;;;;;;;64.03;50.75;;;;;;;;;;1954547;73;26224;-93
2022/10/16 08:51:46;;;;;;;62.90;49.13;;;;;;;;;;1968852;73;26261;-90
2022/10/16 08:54:15;;;;;;;71.53;55.10;;;;;;;;;;1942766;73;26511;-88
2022/10/16 08:56:44;;;;;;;70.20;54.75;;;;;;;;;;1944017;72;26337;-92
2022/10/16 08:59:12;;;;;;;75.83;58.48;;;;;;;;;;1940381;73;26216;-93
2022/10/16 09:01:41;;;;;;;83.30;64.12;;;;;;;;;;1959012;73;26203;-89
2022/10/16 09:04:27;;;;;;;89.35;67.32;;;;;;;;;;1950449;73;26872;-90
2022/10/16 09:06:55;;;;;;;85.60;63.50;;;;;;;;;;1955494;72;26260;-92
2022/10/16 09:09:30;;;;;;;89.77;70.25;;;;;;;;;;1955060;73;26270;-89
2022/10/16 09:11:59;;;;;;;96.00;72.03;;;;;;;;;;1959066;73;26270;-90
2022/10/16 09:14:36;;;;;;;99.22;75.62;;;;;;;;;;1951815;72;26222;-89
2022/10/16 09:17:01;;;;;;;102.95;75.90;;;;;;;;;;1937713;73;26284;-90
2022/10/16 09:19:33;;;;;;;100.35;75.10;;;;;;;;;;1933336;73;26218;-91
2022/10/16 09:22:10;;;;;;;108.95;79.92;;;;;;;;;;1932886;74;25446;-89
2022/10/16 09:24:38;;;;;;;112.68;83.40;;;;;;;;;;1940612;74;26173;-89
2022/10/16 09:27:05;;;;;;;123.62;93.03;;;;;;;;;;1912359;73;26220;-90
2022/10/16 09:29:32;;;;;;;118.42;87.10;;;;;;;;;;1913834;74;26369;-90
2022/10/16 09:32:01;;;;;;;119.50;89.30;;;;;;;;;;1912145;74;26220;-91
2022/10/16 09:34:30;;;;;;;126.55;92.67;;;;;;;;;;1916157;73;26266;-94
2022/10/16 09:36:58;;;;;;;123.67;92.33;;;;;;;;;;1908941;73;26306;-88
2022/10/16 09:39:25;;;;;;;128.50;96.25;;;;;;;;;;1920650;73;26278;-89
2022/10/16 09:41:53;;;;;;;126.12;96.63;;;;;;;;;;1928249;73;26288;-91
2022/10/16 09:44:22;;;;;;;134.65;100.10;;;;;;;;;;1913714;73;26751;-91
2022/10/16 09:46:50;;;;;;;127.78;93.45;;;;;;;;;;1923029;73;26280;-89
2022/10/16 09:52:14;;;;;;;110.45;78.80;;;;;;;;;;1940308;73;26754;-89
2022/10/16 09:54:54;;;;;;;96.87;69.17;;;;;;;;;;1916105;74;26791;-88
2022/10/16 09:57:22;;;;;;;93.50;66.50;;;;;;;;;;1924156;74;26220;-91
2022/10/16 09:59:51;;;;;;;82.75;59.90;;;;;;;;;;1923612;74;27559;-90
2022/10/16 10:02:20;;;;;;;79.20;56.48;;;;;;;;;;1925167;74;26823;-88
2022/10/16 10:04:53;;;;;;;76.40;54.63;;;;;;;;;;1941778;72;26216;-89
2022/10/16 10:07:37;;;;;;;68.97;49.58;;;;;;;;;;1949910;73;26278;-88
2022/10/16 10:10:05;;;;;;;64.62;48.42;;;;;;;;;;1940178;73;26253;-92
2022/10/16 10:12:35;;;;;;;63.68;47.20;;;;;;;;;;1929607;73;26228;-89
2022/10/16 10:15:07;;;;;;;62.93;44.77;;;;;;;;;;1916197;73;26180;-90
2022/10/16 10:17:34;;;;;;;61.95;44.08;;;;;;;;;;1923238;73;26157;-91
2022/10/16 10:20:03;;;;;;;57.25;41.65;;;;;;;;;;1925422;73;26905;-91
2022/10/16 10:22:32;;;;;;;54.90;40.78;;;;;;;;;;1913686;74;26751;-89
2022/10/16 10:25:03;;;;;;;54.33;38.08;;;;;;;;;;1919579;73;26233;-91
2022/10/16 10:27:49;;;;;;;49.15;36.33;;;;;;;;;;1843438;76;26729;-94
2022/10/16 10:30:18;;;;;;;45.15;34.05;;;;;;;;;;1918770;73;26208;-91
2022/10/16 10:33:03;;;;;;;46.18;33.48;;;;;;;;;;1913726;73;26241;-89
2022/10/16 10:35:32;;;;;;;44.93;31.70;;;;;;;;;;1916738;73;26236;-93
2022/10/16 10:38:03;;;;;;;41.33;30.25;;;;;;;;;;1924653;74;26724;-88
2022/10/16 10:40:37;;;;;;;37.65;28.05;;;;;;;;;;1925377;73;26331;-88
2022/10/16 10:43:22;;;;;;;37.00;27.00;;;;;;;;;;1921799;74;26233;-87
2022/10/16 10:45:51;;;;;;;36.30;25.85;;;;;;;;;;1925678;73;26271;-87
2022/10/16 10:48:35;;;;;;;38.45;25.27;;;;;;;;;;1825503;76;26276;-85
2022/10/16 10:51:04;;;;;;;34.50;21.60;;;;;;;;;;1895356;74;26248;-87
2022/10/16 10:53:36;;;;;;;30.10;20.55;;;;;;;;;;1883657;74;26302;-88
2022/10/16 10:56:16;;;;;;;31.55;20.23;;;;;;;;;;1885933;74;26315;-88
2022/10/16 10:58:45;;;;;;;27.27;20.20;;;;;;;;;;1890066;75;26219;-88
2022/10/16 11:01:17;;;;;;;30.62;19.77;;;;;;;;;;1875108;75;26226;-88
2022/10/16 11:04:03;;;;;;;25.12;18.60;;;;;;;;;;1873722;74;26720;-88
2022/10/16 11:06:35;;;;;;;27.17;17.95;;;;;;;;;;1881946;75;26229;-90
2022/10/16 11:09:10;;;;;;;23.90;17.52;;;;;;;;;;1889050;74;26220;-89
2022/10/16 11:11:38;;;;;;;21.70;15.18;;;;;;;;;;1916176;73;26290;-90
2022/10/16 11:14:13;;;;;;;23.30;16.00;;;;;;;;;;1910905;73;26224;-89
2022/10/16 11:16:42;;;;;;;17.85;14.33;;;;;;;;;;1922487;73;26737;-87
2022/10/16 11:19:16;;;;;;;16.65;13.00;;;;;;;;;;1914255;73;26668;-89
2022/10/16 11:21:50;;;;;;;14.73;11.38;;;;;;;;;;1919579;73;26222;-89
2022/10/16 11:24:17;;;;;;;16.62;12.25;;;;;;;;;;1915339;73;26948;-87
2022/10/16 11:26:45;;;;;;;13.98;11.45;;;;;;;;;;1915047;73;26199;-89
2022/10/16 11:29:20;;;;;;;12.33;10.35;;;;;;;;;;1914077;73;26332;-88
2022/10/16 11:31:49;;;;;;;12.68;9.83;;;;;;;;;;1916392;73;26261;-88
2022/10/16 11:34:18;;;;;;;13.30;9.45;;;;;;;;;;1918888;73;26244;-90
2022/10/16 11:36:47;;;;;;;9.35;8.23;;;;;;;;;;1918215;73;26287;-88
2022/10/16 11:39:19;;;;;;;9.20;8.25;;;;;;;;;;1919665;73;26388;-89
2022/10/16 11:41:47;;;;;;;10.90;8.40;;;;;;;;;;1914087;73;26988;-88
2022/10/16 11:44:28;;;;;;;11.83;8.00;;;;;;;;;;1917236;73;26741;-88
2022/10/16 11:46:57;;;;;;;10.40;7.25;;;;;;;;;;1919698;73;26230;-91
2022/10/16 11:49:26;;;;;;;9.25;6.85;;;;;;;;;;1918837;73;26186;-87
2022/10/16 11:51:54;;;;;;;8.13;7.12;;;;;;;;;;1916987;73;26287;-92
2022/10/16 11:54:23;;;;;;;7.10;6.40;;;;;;;;;;1917918;73;26180;-88
2022/10/16 11:56:52;;;;;;;6.65;5.75;;;;;;;;;;1920218;73;25715;-87
2022/10/16 11:59:21;;;;;;;6.47;5.80;;;;;;;;;;1921799;73;26791;-88
2022/10/16 12:01:52;;;;;;;5.65;5.08;;;;;;;;;;1919163;73;26730;-87
2022/10/16 12:04:33;;;;;;;5.80;5.20;;;;;;;;;;1916757;74;26215;-86
2022/10/16 12:07:03;;;;;;;7.05;5.50;;;;;;;;;;1914159;74;26306;-86
2022/10/16 12:09:35;;;;;;;5.70;5.20;;;;;;;;;;1919549;74;26225;-87
2022/10/16 12:12:02;;;;;;;5.67;5.15;;;;;;;;;;1912428;74;26259;-86
2022/10/16 12:14:31;;;;;;;5.20;4.70;;;;;;;;;;1937831;73;26248;-87
2022/10/16 12:16:59;;;;;;;4.90;4.50;;;;;;;;;;1912735;73;26275;-86
2022/10/16 12:19:28;;;;;;;4.95;4.55;;;;;;;;;;1931261;73;26287;-89
2022/10/16 12:21:57;;;;;;;5.35;4.85;;;;;;;;;;1926384;73;26222;-87
2022/10/16 12:24:28;;;;;;;5.30;4.80;;;;;;;;;;1921599;73;26267;-88
2022/10/16 12:26:56;;;;;;;4.70;4.20;;;;;;;;;;1916297;73;26872;-89
2022/10/16 12:29:30;;;;;;;4.70;4.28;;;;;;;;;;1926902;73;26656;-88
2022/10/16 12:31:58;;;;;;;4.00;3.70;;;;;;;;;;1920018;73;26275;-87
2022/10/16 12:34:29;;;;;;;4.25;3.87;;;;;;;;;;1933481;73;26254;-87
2022/10/16 12:36:57;;;;;;;3.80;3.40;;;;;;;;;;1920583;73;26909;-88
2022/10/16 12:39:25;;;;;;;3.77;3.47;;;;;;;;;;1927486;73;26238;-87
2022/10/16 12:42:03;;;;;;;3.95;3.65;;;;;;;;;;1910870;73;26304;-88
2022/10/16 12:44:34;;;;;;;3.58;3.30;;;;;;;;;;1921877;73;26255;-87
2022/10/16 12:47:02;;;;;;;3.70;3.35;;;;;;;;;;1923383;73;26219;-88
2022/10/16 12:49:31;;;;;;;3.65;3.30;;;;;;;;;;1924766;73;26289;-88
2022/10/16 12:51:59;;;;;;;4.37;3.10;;;;;;;;;;1915534;73;26308;-88
2022/10/16 12:54:30;;;;;;;3.33;3.12;;;;;;;;;;1926045;73;26264;-87
2022/10/16 12:57:11;;;;;;;3.27;3.08;;;;;;;;;;1934361;73;26239;-89
2022/10/16 12:59:58;;;;;;;4.10;2.60;;;;;;;;;;1926721;73;26854;-88
2022/10/16 13:02:27;;;;;;;4.05;2.77;;;;;;;;;;1911161;73;26176;-88
2022/10/16 13:05:08;;;;;;;5.17;2.67;;;;;;;;;;1929149;73;26262;-89
2022/10/16 13:07:42;;;;;;;3.92;2.40;;;;;;;;;;1847542;75;26932;-89
2022/10/16 13:10:20;;;;;;;2.90;2.60;;;;;;;;;;1892649;74;26270;-90
2022/10/16 13:12:52;;;;;;;2.85;2.60;;;;;;;;;;1883181;75;26179;-90
2022/10/16 13:15:24;;;;;;;2.67;2.47;;;;;;;;;;1895581;75;26208;-91
2022/10/16 13:17:59;;;;;;;2.65;2.35;;;;;;;;;;1897753;75;26844;-91
2022/10/16 13:20:30;;;;;;;2.35;2.25;;;;;;;;;;1894840;75;26228;-89
2022/10/16 13:22:59;;;;;;;2.45;2.15;;;;;;;;;;1893690;74;26292;-91
2022/10/16 13:25:44;;;;;;;4.95;2.30;;;;;;;;;;1896583;74;26267;-90
2022/10/16 13:28:12;;;;;;;2.92;2.20;;;;;;;;;;1893519;74;26228;-91
2022/10/16 13:30:41;;;;;;;3.37;2.27;;;;;;;;;;1895407;74;26267;-89
2022/10/16 13:33:10;;;;;;;3.45;2.17;;;;;;;;;;1877998;74;26212;-90
2022/10/16 13:35:37;;;;;;;3.72;1.95;;;;;;;;;;1896883;74;26267;-91
2022/10/16 13:38:06;;;;;;;3.50;2.20;;;;;;;;;;1879174;74;26248;-91
2022/10/16 13:40:34;;;;;;;2.17;2.00;;;;;;;;;;1878260;74;26182;-90
2022/10/16 13:43:01;;;;;;;4.40;2.30;;;;;;;;;;1897781;74;26716;-90
2022/10/16 13:45:29;;;;;;;5.00;1.90;;;;;;;;;;1927896;74;26260;-90
2022/10/16 13:48:04;;;;;;;2.87;2.00;;;;;;;;;;1898079;74;26307;-90
2022/10/16 13:50:31;;;;;;;2.00;1.90;;;;;;;;;;1888820;75;26302;-89
2022/10/16 13:53:09;;;;;;;5.87;2.00;;;;;;;;;;1894616;74;26744;-90
2022/10/16 13:55:37;;;;;;;1.75;1.55;;;;;;;;;;1881165;74;26249;-90
2022/10/16 13:58:15;;;;;;;2.83;1.85;;;;;;;;;;1897587;75;26807;-91
2022/10/16 14:00:43;;;;;;;2.77;1.50;;;;;;;;;;1895487;75;26220;-90
2022/10/16 14:03:15;;;;;;;4.05;1.67;;;;;;;;;;1895292;75;26264;-90
2022/10/16 14:05:50;;;;;;;3.33;2.00;;;;;;;;;;1898003;74;26339;-90
2022/10/16 14:08:18;;;;;;;1.60;1.50;;;;;;;;;;1927506;74;26234;-90
2022/10/16 14:10:46;;;;;;;2.92;1.80;;;;;;;;;;1913159;74;26234;-90
2022/10/16 14:13:15;;;;;;;5.15;1.50;;;;;;;;;;1912025;75;26652;-90
2022/10/16 14:15:44;;;;;;;2.92;1.52;;;;;;;;;;1919647;73;26664;-91
2022/10/16 14:18:13;;;;;;;1.70;1.60;;;;;;;;;;1895050;73;26696;-91
2022/10/16 14:20:40;;;;;;;1.75;1.22;;;;;;;;;;1912265;74;26652;-94
2022/10/16 14:23:15;;;;;;;1.40;1.25;;;;;;;;;;1892794;74;26197;-88
2022/10/16 14:25:42;;;;;;;1.40;1.30;;;;;;;;;;1905924;75;26219;-90
2022/10/16 14:28:17;;;;;;;1.50;1.40;;;;;;;;;;1909709;73;26230;-90
2022/10/16 14:30:52;;;;;;;1.57;1.32;;;;;;;;;;1910174;74;27230;-91
2022/10/16 14:33:30;;;;;;;1.75;1.40;;;;;;;;;;1909546;75;26741;-90
2022/10/16 14:35:59;;;;;;;1.30;1.20;;;;;;;;;;1906671;74;26597;-90
2022/10/16 14:38:26;;;;;;;1.32;1.22;;;;;;;;;;1900272;73;26657;-90
2022/10/16 14:40:54;;;;;;;1.22;1.12;;;;;;;;;;1908780;73;26253;-90
2022/10/16 14:43:38;;;;;;;1.22;1.10;;;;;;;;;;1906817;73;26254;-91
2022/10/16 14:46:25;;;;;;;1.15;1.10;;;;;;;;;;1906514;73;26339;-90
2022/10/16 14:48:51;;;;;;;0.98;0.98;;;;;;;;;;1903206;73;26381;-91
2022/10/16 14:51:20;;;;;;;1.82;1.17;;;;;;;;;;1908558;73;26211;-90
2022/10/16 14:53:47;;;;;;;0.90;0.90;;;;;;;;;;1911365;73;26264;-91
2022/10/16 14:56:22;;;;;;;1.80;1.02;;;;;;;;;;1907234;75;26316;-90
2022/10/16 14:58:53;;;;;;;1.70;1.10;;;;;;;;;;1908953;74;26226;-90
2022/10/16 15:01:20;;;;;;;1.02;0.98;;;;;;;;;;1909360;74;26241;-90
2022/10/16 15:03:47;;;;;;;1.10;1.10;;;;;;;;;;1903398;74;26318;-90
2022/10/16 15:06:15;;;;;;;0.80;0.80;;;;;;;;;;1910793;73;26751;-91
2022/10/16 15:08:51;;;;;;;1.10;1.10;;;;;;;;;;1906141;75;26238;-90
2022/10/16 15:11:20;;;;;;;1.00;1.00;;;;;;;;;;1906365;75;26271;-90